Alstead Center, New Hampshire
Current Conditions -  °F | °C
As of 5:15 PM on Sunday 25 Jan 2015 (Local Time) from KEEN Reporting Station
Clear Clear  
Wind Chill: 18°   Ceiling: Unl
Heat Index: 25°   Visibility: 10mi
Dew Point:   Wind: 6mph
Humidity: 36%   Direction: 330°NNW
Pressure: 29.82"   Gusts: NA
Location:  43.1141°N, 72.3097°W
Report Text: KEEN 252215Z AUTO 33005KT 10SM CLR M04/M17 A2982 RMK AO1
Loading
Personal Weather Stations






























Interactive Weather Map New forecast layout! Learn more

10-Day Weather Forecast

Advertisements
Track Severe Weather on mobile